Hauptseite
METAR-TAF:

METAR-TAF

Flughäfen :

Flughafen Ljubljana

Ljubljana, Slowenien

Breite: 46-13N, Länge: 014-29E, Höhe: 385 m

Beobachtung

Neuester Wetterbericht von vor 28 Minuten, um 01:30 UTC
Wind 2 kt aus Südwest
Temperatur -2°C
Luftfeuchtigkeit 86%
Luftdruck 1019 hPa
Sichtweite 10 km oder mehr
Geschlossene Wolkendecke in der Höhe von 2300 ft

METAR: LJLJ 160130Z 23002KT 9999 OVC023 M02/M04 Q1019 NOSIG

Zeit: 02:58 (01:58 UTC)

Prognose

Neuester Wetterbericht von vor 2 Stunden und 58 Minuten, um 23:00 UTC
Gültige Prognose vom 16 um 00 UTC bis 16 um 24 UTC
Wind 3 kt aus West/Nordwest
Sichtweite 10 km oder mehr
Geschlossene Wolkendecke in der Höhe von 2000 ft
Zeitweise
vom 16 um 00 UTC bis 16 um 24 UTC
Leicht bewölkt in der Höhe von 2000 ft
Zeitweise
vom 16 um 11 UTC bis 16 um 15 UTC
Wind 5 kt aus Südost

TAF: LJLJ 152300Z 1600/1624 30003KT 9999 OVC020 TEMPO 1600/1624 FEW020 TEMPO 1611/1615 13005KT

Wetterbeobachtungen und Prognosen von mehr als 4000 Flughäfen (METAR und TAF Bericht).

Die verfügbaren Stationen werden durch gelbe und rote Markierungen auf der Karte dargestellt.

Führen Sie die Maus auf sie, um den Namen der Station zu sehen.

Darauf klicken, um die Beobachtung von Wetterbeobachtungen und Prognosen zu sehen.

Um die Karte zu ändern : klicken Sie auf den grünen Tasten mit einem schwarzen Kreuz Zum Vergrößern, auf den grünen Button mit einem Gedankenstrich zu verkleinern, oder auf die grünen Pfeile für benachbarte Karten.


METAR-TAF: